Pryor, Colorado
Current Conditions -  °F | °C
As of 11:52 AM on Friday 24 Oct 2014 (Local Time) from KVTP Reporting Station
Clear Clear  
Wind Chill: 55°   Ceiling: Unl
Heat Index: 55°   Visibility: 10mi
Dew Point: 30°   Wind: 7mph
Humidity: 38%   Direction: 200°SSW
Pressure: 30.54"   Gusts: NA
Location:  37.6936°N, 104.772°W
Report Text: KVTP 241752Z AUTO 20006KT 10SM CLR 13/M01 A3054 RMK AO2
Loading
Personal Weather Stations






























Interactive Weather Map
Tropical Storm Tracking
New forecast layout! Learn more

10-Day Weather Forecast

Advertisements
Track Severe Weather on mobile